createdAt,value
2023-03-13T00:00:43.827Z,100659.04
2023-03-13T00:01:53.044Z,100659.02
2023-03-13T00:02:54.590Z,100655.89
2023-03-13T00:03:56.240Z,100650.05
2023-03-13T00:04:57.934Z,100645.57
2023-03-13T00:05:59.422Z,100640.73
2023-03-13T00:07:00.936Z,100635.88
2023-03-13T00:08:02.503Z,100635.23
2023-03-13T00:09:06.540Z,100632.66
2023-03-13T00:10:08.543Z,100637.68
2023-03-13T00:11:12.023Z,100635.99
2023-03-13T00:12:13.492Z,100638.56
2023-03-13T00:13:14.974Z,100638.42
2023-03-13T00:14:16.436Z,100640.41
2023-03-13T00:15:18.098Z,100639.29
2023-03-13T00:16:19.714Z,100635.89
2023-03-13T00:17:21.826Z,100633.09
2023-03-13T00:18:23.318Z,100636.26
2023-03-13T00:19:24.823Z,100639.29
2023-03-13T00:20:27.273Z,100634.52
2023-03-13T00:21:29.618Z,100637.04
2023-03-13T00:22:31.163Z,100631.86
2023-03-13T00:23:34.067Z,100629.30
2023-03-13T00:24:35.650Z,100629.67
2023-03-13T00:25:37.222Z,100626.21
2023-03-13T00:26:38.805Z,100628.27
2023-03-13T00:27:40.389Z,100631.04
2023-03-13T00:28:42.610Z,100626.08
2023-03-13T00:29:44.175Z,100621.13
2023-03-13T00:30:46.485Z,100619.44
2023-03-13T00:31:48.022Z,100618.95
2023-03-13T00:32:51.335Z,100617.10
2023-03-13T00:33:56.572Z,100622.39
2023-03-13T00:34:58.051Z,100625.27
2023-03-13T00:36:01.648Z,100625.88
2023-03-13T00:37:03.237Z,100625.33
2023-03-13T00:38:04.761Z,100622.50
2023-03-13T00:39:06.828Z,100626.25
2023-03-13T00:40:10.379Z,100625.23
2023-03-13T00:41:15.001Z,100629.58
2023-03-13T00:42:16.770Z,100633.80
2023-03-13T00:43:18.286Z,100637.70
2023-03-13T00:44:19.874Z,100633.59
2023-03-13T00:45:22.710Z,100630.04
2023-03-13T00:46:26.906Z,100631.20
2023-03-13T00:47:28.535Z,100629.83
2023-03-13T00:48:30.749Z,100626.88
2023-03-13T00:49:32.788Z,100621.15
2023-03-13T00:50:34.314Z,100616.05
2023-03-13T00:51:36.186Z,100611.81
2023-03-13T00:52:37.931Z,100604.60
2023-03-13T00:53:39.570Z,100603.42
2023-03-13T00:54:41.208Z,100596.32
2023-03-13T00:56:07.202Z,100599.40
2023-03-13T00:57:08.982Z,100595.27
2023-03-13T00:58:10.503Z,100595.67
2023-03-13T00:59:13.370Z,100590.33
2023-03-13T01:00:16.336Z,100587.61
2023-03-13T01:01:30.224Z,100582.45
2023-03-13T01:02:32.116Z,100576.42
2023-03-13T01:03:35.853Z,100574.70
2023-03-13T01:04:37.372Z,100574.37
2023-03-13T01:05:38.852Z,100570.70
2023-03-13T01:06:42.204Z,100565.43
2023-03-13T01:07:43.990Z,100565.59
2023-03-13T01:08:45.977Z,100560.65
2023-03-13T01:09:47.461Z,100557.02
2023-03-13T01:11:27.693Z,100554.56
2023-03-13T01:12:29.445Z,100545.71
2023-03-13T01:13:33.007Z,100546.57
2023-03-13T01:14:34.608Z,100538.82
2023-03-13T01:15:36.243Z,100537.80
2023-03-13T01:16:38.520Z,100539.79
2023-03-13T01:17:42.723Z,100539.22
2023-03-13T01:18:50.711Z,100535.16
2023-03-13T01:19:55.536Z,100534.02
2023-03-13T01:20:57.421Z,100531.88
2023-03-13T01:21:58.931Z,100528.73
2023-03-13T01:23:00.405Z,100529.86
2023-03-13T01:24:02.630Z,100532.23
2023-03-13T01:27:42.849Z,100531.66
2023-03-13T01:28:44.881Z,100529.39
2023-03-13T01:29:46.641Z,100527.58
2023-03-13T01:31:30.639Z,100520.91
2023-03-13T01:32:33.311Z,100519.44
2023-03-13T01:33:37.188Z,100517.85
2023-03-13T01:34:39.942Z,100513.11
2023-03-13T01:35:41.736Z,100515.66
2023-03-13T01:36:44.740Z,100513.30
2023-03-13T01:37:46.453Z,100513.83
2023-03-13T01:38:53.539Z,100510.52
2023-03-13T01:39:55.079Z,100507.59
2023-03-13T01:40:56.743Z,100502.67
2023-03-13T01:41:59.710Z,100498.70
2023-03-13T01:43:17.554Z,100495.33
2023-03-13T01:44:27.496Z,100494.77
2023-03-13T01:45:59.121Z,100497.66
2023-03-13T01:47:04.071Z,100492.77
2023-03-13T01:48:40.794Z,100490.65
2023-03-13T01:49:44.095Z,100487.83
2023-03-13T01:50:58.118Z,100483.42
2023-03-13T01:52:08.875Z,100483.59
2023-03-13T01:53:15.616Z,100481.05
2023-03-13T01:54:52.617Z,100481.75
2023-03-13T01:55:56.783Z,100482.30
2023-03-13T01:57:13.303Z,100482.73
2023-03-13T01:58:15.366Z,100479.21
2023-03-13T01:59:22.360Z,100482.35
2023-03-13T02:00:29.117Z,100486.04
2023-03-13T02:01:30.745Z,100484.96
2023-03-13T02:02:33.919Z,100484.11
2023-03-13T02:03:37.325Z,100485.13
2023-03-13T02:04:46.961Z,100486.22
2023-03-13T02:05:50.968Z,100486.87
2023-03-13T02:06:59.679Z,100485.66
2023-03-13T02:08:08.260Z,100487.80
2023-03-13T02:09:20.265Z,100482.89
2023-03-13T02:10:26.343Z,100474.54
2023-03-13T02:11:38.071Z,100473.89
2023-03-13T02:12:50.777Z,100471.93
2023-03-13T02:13:55.832Z,100472.23
2023-03-13T02:15:00.804Z,100474.15
2023-03-13T02:16:03.032Z,100475.52
2023-03-13T02:17:06.857Z,100477.20
2023-03-13T02:18:10.167Z,100479.02
2023-03-13T02:19:24.657Z,100484.30
2023-03-13T02:20:26.274Z,100487.26
2023-03-13T02:21:41.828Z,100487.85
2023-03-13T02:23:00.438Z,100488.05
2023-03-13T02:24:46.096Z,100489.80
2023-03-13T02:25:50.518Z,100486.90
2023-03-13T02:26:55.924Z,100486.90
2023-03-13T02:28:02.830Z,100488.11
2023-03-13T02:29:04.829Z,100485.42
2023-03-13T02:30:08.154Z,100489.98
2023-03-13T02:31:09.966Z,100488.89
2023-03-13T02:32:12.038Z,100490.71
2023-03-13T02:33:14.878Z,100487.32
2023-03-13T02:34:21.545Z,100491.25
2023-03-13T02:35:23.653Z,100493.10
2023-03-13T02:36:27.771Z,100489.66
2023-03-13T02:37:30.409Z,100489.66
2023-03-13T02:38:37.787Z,100491.68
2023-03-13T02:39:45.300Z,100488.48
2023-03-13T02:40:48.766Z,100488.39
2023-03-13T02:41:52.236Z,100491.11
2023-03-13T02:42:56.440Z,100495.30
2023-03-13T02:43:58.290Z,100493.41
2023-03-13T02:45:00.191Z,100495.89
2023-03-13T02:46:05.057Z,100495.66
2023-03-13T02:47:10.824Z,100492.69
2023-03-13T02:48:12.357Z,100487.56
2023-03-13T02:49:19.891Z,100484.62
2023-03-13T02:50:23.087Z,100482.67
2023-03-13T02:51:44.381Z,100482.02
2023-03-13T02:52:47.770Z,100482.67
2023-03-13T02:53:51.909Z,100476.38
2023-03-13T02:55:07.391Z,100471.77
2023-03-13T02:56:13.791Z,100469.31
2023-03-13T02:57:15.496Z,100470.10
2023-03-13T02:58:17.092Z,100470.20
2023-03-13T02:59:19.781Z,100469.34
2023-03-13T03:00:26.008Z,100467.45
2023-03-13T03:01:27.655Z,100461.97
2023-03-13T03:02:29.251Z,100461.72
2023-03-13T03:03:30.837Z,100460.90
2023-03-13T03:04:32.619Z,100456.39
2023-03-13T03:05:34.176Z,100454.58
2023-03-13T03:06:35.871Z,100454.91
2023-03-13T03:07:38.668Z,100452.33
2023-03-13T03:08:43.347Z,100451.70
2023-03-13T03:09:46.337Z,100446.80
2023-03-13T03:10:52.156Z,100444.10
2023-03-13T03:11:55.728Z,100443.07
2023-03-13T03:12:57.443Z,100439.30
2023-03-13T03:13:58.954Z,100432.27
2023-03-13T03:15:01.188Z,100431.52
2023-03-13T03:16:14.621Z,100424.23
2023-03-13T03:17:16.431Z,100420.17
2023-03-13T03:18:18.067Z,100413.63
2023-03-13T03:19:19.604Z,100412.48
2023-03-13T03:20:21.816Z,100411.48
2023-03-13T03:21:23.597Z,100417.56
2023-03-13T03:22:26.554Z,100420.05
2023-03-13T03:23:28.052Z,100417.04
2023-03-13T03:24:29.464Z,100416.41
2023-03-13T03:25:32.115Z,100415.30
2023-03-13T03:26:34.087Z,100411.67
2023-03-13T03:27:37.050Z,100405.20
2023-03-13T03:28:41.204Z,100402.08
2023-03-13T03:29:45.112Z,100405.72
2023-03-13T03:30:46.754Z,100400.95
2023-03-13T03:31:48.491Z,100396.83
2023-03-13T03:32:50.293Z,100392.64
2023-03-13T03:33:51.944Z,100388.30
2023-03-13T03:34:53.650Z,100383.95
2023-03-13T03:36:00.275Z,100381.37
2023-03-13T03:37:02.088Z,100381.61
2023-03-13T03:38:07.593Z,100382.48
2023-03-13T03:39:09.406Z,100380.97
2023-03-13T03:40:11.787Z,100383.48
2023-03-13T03:41:14.723Z,100381.93
2023-03-13T03:42:16.666Z,100380.86
2023-03-13T03:43:18.336Z,100378.17
2023-03-13T03:44:19.858Z,100379.02
2023-03-13T03:45:25.601Z,100374.46
2023-03-13T03:46:27.226Z,100373.91
2023-03-13T03:47:30.283Z,100368.04
2023-03-13T03:48:32.123Z,100374.64
2023-03-13T03:49:33.724Z,100380.45
2023-03-13T03:50:35.256Z,100381.87
2023-03-13T03:51:37.120Z,100383.67
2023-03-13T03:52:38.739Z,100377.24
2023-03-13T03:53:40.352Z,100375.19
2023-03-13T03:54:42.367Z,100368.77
2023-03-13T03:55:44.349Z,100363.75
2023-03-13T03:56:45.806Z,100361.92
2023-03-13T03:57:47.664Z,100362.20
2023-03-13T03:58:51.959Z,100356.22
2023-03-13T04:00:18.293Z,100348.27
2023-03-13T04:01:20.365Z,100350.04
2023-03-13T04:02:21.871Z,100347.20
2023-03-13T04:03:24.956Z,100348.60
2023-03-13T04:04:27.319Z,100345.52
2023-03-13T04:05:35.207Z,100350.08
2023-03-13T04:06:36.697Z,100346.76
2023-03-13T04:07:39.765Z,100349.88
2023-03-13T04:08:41.518Z,100347.98
2023-03-13T04:09:44.950Z,100347.30
2023-03-13T04:10:54.949Z,100350.43
2023-03-13T04:11:58.153Z,100348.14
2023-03-13T04:12:59.765Z,100344.36
2023-03-13T04:14:02.598Z,100341.69
2023-03-13T04:15:04.954Z,100341.44
2023-03-13T04:16:07.994Z,100338.30
2023-03-13T04:17:09.984Z,100338.31
2023-03-13T04:18:11.850Z,100335.69
2023-03-13T04:19:13.707Z,100329.05
2023-03-13T04:20:17.161Z,100326.15
2023-03-13T04:21:18.834Z,100324.58
2023-03-13T04:22:25.653Z,100320.58
2023-03-13T04:23:31.303Z,100316.64
2023-03-13T04:24:33.913Z,100318.02
2023-03-13T04:25:35.551Z,100314.57
2023-03-13T04:26:38.410Z,100314.08
2023-03-13T04:27:40.079Z,100317.79
2023-03-13T04:28:42.321Z,100314.83
2023-03-13T04:29:45.597Z,100316.34
2023-03-13T04:31:02.672Z,100307.83
2023-03-13T04:32:33.216Z,100305.35
2023-03-13T04:33:53.456Z,100301.63
2023-03-13T04:35:17.908Z,100296.84
2023-03-13T04:36:38.178Z,100294.24
2023-03-13T04:38:05.868Z,100289.59
2023-03-13T04:39:42.960Z,100289.56
2023-03-13T04:41:11.927Z,100283.63
2023-03-13T04:42:27.539Z,100285.41
2023-03-13T04:44:04.719Z,100285.60
2023-03-13T04:45:09.857Z,100288.73
2023-03-13T04:46:23.224Z,100289.15
2023-03-13T04:47:39.763Z,100288.99
2023-03-13T04:49:08.739Z,100286.42
2023-03-13T04:50:13.208Z,100287.88
2023-03-13T04:51:23.417Z,100286.66
2023-03-13T04:52:32.515Z,100286.18
2023-03-13T04:53:55.745Z,100281.42
2023-03-13T04:55:10.007Z,100281.86
2023-03-13T04:56:32.503Z,100275.86
2023-03-13T04:58:05.831Z,100275.56
2023-03-13T04:59:27.782Z,100270.02
2023-03-13T05:00:40.672Z,100266.19
2023-03-13T05:02:20.979Z,100259.21
2023-03-13T05:03:42.956Z,100259.52
2023-03-13T05:05:22.798Z,100252.49
2023-03-13T05:06:47.465Z,100250.98
2023-03-13T05:08:18.346Z,100248.86
2023-03-13T05:09:32.089Z,100244.10
2023-03-13T05:10:52.379Z,100246.90
2023-03-13T05:12:09.324Z,100237.55
2023-03-13T05:13:28.110Z,100237.26
2023-03-13T05:14:53.488Z,100235.36
2023-03-13T05:16:13.676Z,100229.84
2023-03-13T05:17:33.985Z,100225.17
2023-03-13T05:18:53.459Z,100226.83
2023-03-13T05:20:21.216Z,100221.94
2023-03-13T05:21:34.198Z,100221.45
2023-03-13T05:22:50.072Z,100223.22
2023-03-13T05:24:14.479Z,100222.45
2023-03-13T05:25:34.437Z,100223.95
2023-03-13T05:26:49.616Z,100233.63
2023-03-13T05:28:08.683Z,100234.28
2023-03-13T05:29:28.746Z,100225.79
2023-03-13T05:30:50.618Z,100226.20
2023-03-13T05:32:21.447Z,100224.68
2023-03-13T05:33:36.242Z,100225.66
2023-03-13T05:35:07.673Z,100226.44
2023-03-13T05:36:09.445Z,100224.33
2023-03-13T05:37:34.034Z,100218.91
2023-03-13T05:38:53.701Z,100219.40
2023-03-13T05:40:10.763Z,100223.23
2023-03-13T05:41:21.061Z,100225.76
2023-03-13T05:42:34.518Z,100229.64
2023-03-13T05:43:53.561Z,100231.05
2023-03-13T05:45:14.094Z,100225.40
2023-03-13T05:46:36.242Z,100215.70
2023-03-13T05:47:58.432Z,100212.91
2023-03-13T05:49:13.765Z,100208.13
2023-03-13T05:50:34.034Z,100209.01
2023-03-13T05:52:03.573Z,100209.43
2023-03-13T05:53:05.068Z,100209.84
2023-03-13T05:54:15.581Z,100213.27
2023-03-13T05:55:52.620Z,100210.64
2023-03-13T05:57:14.165Z,100207.84
2023-03-13T05:58:23.586Z,100208.45
2023-03-13T05:59:43.749Z,100203.94
2023-03-13T06:01:12.670Z,100198.06
2023-03-13T06:02:28.314Z,100194.98
2023-03-13T06:03:31.130Z,100195.61
2023-03-13T06:04:33.186Z,100194.55
2023-03-13T06:05:35.085Z,100196.56
2023-03-13T06:06:39.681Z,100196.75
2023-03-13T06:07:41.948Z,100196.39
2023-03-13T06:08:43.663Z,100195.44
2023-03-13T06:09:45.277Z,100196.27
2023-03-13T06:10:46.853Z,100190.50
2023-03-13T06:11:48.723Z,100189.73
2023-03-13T06:12:54.452Z,100187.96
2023-03-13T06:13:57.229Z,100186.04
2023-03-13T06:15:23.039Z,100183.15
2023-03-13T06:16:35.582Z,100177.92
2023-03-13T06:17:49.915Z,100178.59
2023-03-13T06:18:51.511Z,100179.24
2023-03-13T06:19:53.266Z,100180.45
2023-03-13T06:21:01.126Z,100178.31
2023-03-13T06:22:02.683Z,100178.77
2023-03-13T06:23:04.139Z,100174.59
2023-03-13T06:24:06.375Z,100173.87
2023-03-13T06:25:08.832Z,100167.71
2023-03-13T06:26:10.550Z,100165.76
2023-03-13T06:27:12.150Z,100162.98
2023-03-13T06:28:14.227Z,100163.73
2023-03-13T06:29:16.879Z,100156.29
2023-03-13T06:30:18.631Z,100157.31
2023-03-13T06:31:20.923Z,100151.48
2023-03-13T06:32:22.548Z,100152.27
2023-03-13T06:33:24.149Z,100150.09
2023-03-13T06:34:25.954Z,100144.52
2023-03-13T06:35:27.667Z,100152.64
2023-03-13T06:36:29.241Z,100147.34
2023-03-13T06:37:30.756Z,100146.42
2023-03-13T06:38:32.899Z,100143.08
2023-03-13T06:39:34.661Z,100141.73
2023-03-13T06:40:36.927Z,100140.05
2023-03-13T06:41:38.740Z,100136.58
2023-03-13T06:42:40.272Z,100136.02
2023-03-13T06:43:42.087Z,100136.77
2023-03-13T06:44:44.222Z,100134.57
2023-03-13T06:45:45.860Z,100131.21
2023-03-13T06:46:47.338Z,100129.08
2023-03-13T06:47:50.949Z,100126.09
2023-03-13T06:48:52.778Z,100131.81
2023-03-13T06:49:54.706Z,100132.16
2023-03-13T06:50:56.204Z,100128.09
2023-03-13T06:51:58.377Z,100126.33
2023-03-13T06:52:59.942Z,100125.34
2023-03-13T06:54:03.090Z,100125.72
2023-03-13T06:55:05.407Z,100126.17
2023-03-13T06:56:08.998Z,100126.74
2023-03-13T06:57:10.667Z,100124.45
2023-03-13T06:58:25.259Z,100122.55
2023-03-13T06:59:30.545Z,100122.16
2023-03-13T07:00:33.701Z,100119.51
2023-03-13T07:01:35.360Z,100119.58
2023-03-13T07:02:36.792Z,100117.59
2023-03-13T07:03:40.627Z,100109.10
2023-03-13T07:04:45.121Z,100111.05
2023-03-13T07:05:47.138Z,100111.77
2023-03-13T07:06:50.320Z,100110.73
2023-03-13T07:07:51.832Z,100111.86
2023-03-13T07:08:53.277Z,100114.94
2023-03-13T07:09:54.765Z,100112.71
2023-03-13T07:11:02.414Z,100113.18
2023-03-13T07:12:04.768Z,100110.39
2023-03-13T07:13:06.256Z,100113.20
2023-03-13T07:14:16.399Z,100109.83
2023-03-13T07:15:18.418Z,100106.91
2023-03-13T07:16:20.135Z,100106.97
2023-03-13T07:17:21.680Z,100108.52
2023-03-13T07:18:23.239Z,100104.14
2023-03-13T07:19:26.707Z,100103.93
2023-03-13T07:20:28.211Z,100104.27
2023-03-13T07:21:30.105Z,100104.86
2023-03-13T07:22:31.893Z,100102.48
2023-03-13T07:23:34.872Z,100100.67
2023-03-13T07:24:36.436Z,100101.14
2023-03-13T07:25:38.103Z,100099.11
2023-03-13T07:26:42.572Z,100091.02
2023-03-13T07:27:52.236Z,100085.71
2023-03-13T07:28:55.443Z,100088.36
2023-03-13T07:29:57.335Z,100082.42
2023-03-13T07:31:08.001Z,100081.75
2023-03-13T07:32:09.745Z,100075.75
2023-03-13T07:33:11.302Z,100073.21
2023-03-13T07:34:12.850Z,100071.33
2023-03-13T07:35:14.735Z,100065.25
2023-03-13T07:36:16.644Z,100062.63
2023-03-13T07:37:18.301Z,100059.69
2023-03-13T07:38:19.903Z,100064.29
2023-03-13T07:39:21.670Z,100061.26
2023-03-13T07:40:23.190Z,100057.58
2023-03-13T07:41:24.705Z,100055.46
2023-03-13T07:42:26.296Z,100058.30
2023-03-13T07:43:28.902Z,100059.41
2023-03-13T07:44:30.519Z,100053.83
2023-03-13T07:45:32.000Z,100051.14
2023-03-13T07:46:33.816Z,100047.41
2023-03-13T07:47:35.609Z,100043.91
2023-03-13T07:48:39.717Z,100042.77
2023-03-13T07:49:43.366Z,100040.34
2023-03-13T07:50:44.840Z,100035.92
2023-03-13T07:51:50.430Z,100037.77
2023-03-13T07:52:52.728Z,100034.11
2023-03-13T07:53:54.331Z,100034.15
2023-03-13T07:54:55.705Z,100032.84
2023-03-13T07:56:00.058Z,100034.81
2023-03-13T07:57:02.472Z,100031.71
2023-03-13T07:58:03.881Z,100032.84
2023-03-13T07:59:05.596Z,100030.46
2023-03-13T08:00:10.973Z,100028.30
2023-03-13T08:01:17.673Z,100026.80
2023-03-13T08:02:19.154Z,100026.08
2023-03-13T08:03:21.924Z,100024.15
2023-03-13T08:04:23.475Z,100021.30
2023-03-13T08:05:24.904Z,100019.20
2023-03-13T08:06:30.890Z,100022.00
2023-03-13T08:07:33.414Z,100018.89
2023-03-13T08:08:35.901Z,100016.28
2023-03-13T08:09:37.688Z,100014.59
2023-03-13T08:10:39.259Z,100015.80
2023-03-13T08:11:40.749Z,100017.56
2023-03-13T08:12:42.386Z,100018.48
2023-03-13T08:13:44.292Z,100013.05
2023-03-13T08:14:46.029Z,100010.77
2023-03-13T08:15:47.531Z,100012.17
2023-03-13T08:16:49.123Z,100024.14
2023-03-13T08:17:54.261Z,100028.61
2023-03-13T08:18:57.944Z,100021.45
2023-03-13T08:19:59.434Z,100023.30
2023-03-13T08:21:09.548Z,100012.85
2023-03-13T08:22:11.035Z,100008.56
2023-03-13T08:23:12.736Z,100001.69
2023-03-13T08:24:14.309Z,99997.02
2023-03-13T08:25:16.528Z,99988.30
2023-03-13T08:26:20.120Z,99980.11
2023-03-13T08:27:21.633Z,99984.41
2023-03-13T08:28:23.363Z,99987.84
2023-03-13T08:29:24.879Z,99987.15
2023-03-13T08:30:26.462Z,99994.48
2023-03-13T08:31:37.558Z,99988.73
2023-03-13T08:32:39.500Z,99986.74
2023-03-13T08:33:46.071Z,99983.48
2023-03-13T08:34:47.494Z,99984.95
2023-03-13T08:35:49.023Z,99988.55
2023-03-13T08:36:52.206Z,99977.42
2023-03-13T08:37:53.662Z,99976.63
2023-03-13T08:38:59.010Z,99972.19
2023-03-13T08:40:00.753Z,99970.36
2023-03-13T08:41:02.299Z,99973.15
2023-03-13T08:42:03.913Z,99970.11
2023-03-13T08:43:05.374Z,99965.93
2023-03-13T08:44:09.608Z,99961.66
2023-03-13T08:45:11.133Z,99958.48
2023-03-13T08:46:13.329Z,99960.61
2023-03-13T08:47:14.935Z,99952.45
2023-03-13T08:48:16.335Z,99948.49
2023-03-13T08:49:19.058Z,99951.73
2023-03-13T08:50:20.557Z,99946.60
2023-03-13T08:51:24.640Z,99945.79
2023-03-13T08:52:26.127Z,99944.02
2023-03-13T08:53:28.224Z,99943.02
2023-03-13T08:54:29.854Z,99948.14
2023-03-13T08:55:31.285Z,99944.21
2023-03-13T08:56:34.224Z,99946.42
2023-03-13T08:57:35.722Z,99943.29
2023-03-13T08:58:37.551Z,99943.08
2023-03-13T08:59:39.199Z,99943.19
2023-03-13T09:00:40.774Z,99940.90
2023-03-13T09:01:42.291Z,99938.98
2023-03-13T09:02:43.805Z,99940.90
2023-03-13T09:03:45.402Z,99934.33
2023-03-13T09:04:48.099Z,99936.83
2023-03-13T09:05:56.108Z,99932.24
2023-03-13T09:06:58.259Z,99931.34
2023-03-13T09:07:59.756Z,99928.85
2023-03-13T09:09:02.453Z,99923.91
2023-03-13T09:10:04.588Z,99929.91
2023-03-13T09:11:09.532Z,99928.15
2023-03-13T09:12:24.583Z,99919.77
2023-03-13T09:13:34.287Z,99915.58
2023-03-13T09:14:36.772Z,99916.19
2023-03-13T09:15:38.609Z,99916.76
2023-03-13T09:16:41.042Z,99919.54
2023-03-13T09:17:42.527Z,99920.64
2023-03-13T09:18:44.901Z,99913.57
2023-03-13T09:19:59.398Z,99914.55
2023-03-13T09:21:03.108Z,99913.08
2023-03-13T09:22:04.608Z,99910.28
2023-03-13T09:23:06.071Z,99906.82
2023-03-13T09:24:07.938Z,99910.46
2023-03-13T09:25:09.854Z,99906.86
2023-03-13T09:26:12.182Z,99901.60
2023-03-13T09:27:13.580Z,99897.33
2023-03-13T09:28:15.125Z,99896.31
2023-03-13T09:29:16.604Z,99896.14
2023-03-13T09:30:18.165Z,99898.69
2023-03-13T09:31:22.694Z,99894.27
2023-03-13T09:32:24.474Z,99892.86
2023-03-13T09:33:26.009Z,99894.22
2023-03-13T09:34:27.497Z,99892.09
2023-03-13T09:35:29.033Z,99888.41
2023-03-13T09:36:30.611Z,99890.38
2023-03-13T09:37:32.079Z,99887.45
2023-03-13T09:38:34.231Z,99889.38
2023-03-13T09:39:36.987Z,99884.42
2023-03-13T09:40:48.667Z,99884.14
2023-03-13T09:42:06.722Z,99884.93
2023-03-13T09:43:24.850Z,99880.55
2023-03-13T09:44:31.911Z,99877.73
2023-03-13T09:45:38.333Z,99877.40
2023-03-13T09:47:01.278Z,99876.02
2023-03-13T09:48:28.675Z,99871.14
2023-03-13T09:49:56.547Z,99866.66
2023-03-13T09:51:07.810Z,99859.35
2023-03-13T09:52:21.798Z,99860.80
2023-03-13T09:53:33.670Z,99859.36
2023-03-13T09:54:43.106Z,99858.41
2023-03-13T09:55:46.430Z,99852.69
2023-03-13T09:56:54.460Z,99854.23
2023-03-13T09:58:03.620Z,99849.58
2023-03-13T09:59:29.997Z,99846.39
2023-03-13T10:00:41.528Z,99843.76
2023-03-13T10:01:44.907Z,99842.95
2023-03-13T10:02:55.525Z,99842.39
2023-03-13T10:04:04.586Z,99843.02
2023-03-13T10:05:19.788Z,99835.91
2023-03-13T10:06:23.933Z,99835.54
2023-03-13T10:07:25.480Z,99834.32
2023-03-13T10:08:30.784Z,99833.91
2023-03-13T10:09:33.463Z,99832.77
2023-03-13T10:10:43.992Z,99830.61
2023-03-13T10:12:06.853Z,99822.91
2023-03-13T10:13:31.127Z,99816.05
2023-03-13T10:14:48.060Z,99820.37
2023-03-13T10:16:00.635Z,99816.23
2023-03-13T10:17:34.773Z,99813.14
2023-03-13T10:18:37.896Z,99808.95
2023-03-13T10:19:45.223Z,99805.19
2023-03-13T10:20:50.360Z,99803.10
2023-03-13T10:21:55.177Z,99800.59
2023-03-13T10:23:02.667Z,99796.95
2023-03-13T10:24:14.169Z,99805.17
2023-03-13T10:25:21.134Z,99799.09
2023-03-13T10:26:29.448Z,99794.94
2023-03-13T10:27:30.947Z,99794.25
2023-03-13T10:28:32.406Z,99797.27
2023-03-13T10:29:34.383Z,99793.58
2023-03-13T10:30:38.932Z,99787.95
2023-03-13T10:31:44.865Z,99785.98
2023-03-13T10:32:46.538Z,99791.78
2023-03-13T10:33:47.992Z,99788.78
2023-03-13T10:34:55.386Z,99786.62
2023-03-13T10:36:04.354Z,99785.19
2023-03-13T10:37:06.571Z,99788.83
2023-03-13T10:38:18.665Z,99778.39
2023-03-13T10:39:25.082Z,99781.00
2023-03-13T10:40:28.829Z,99779.64
2023-03-13T10:41:35.408Z,99774.04
2023-03-13T10:42:43.065Z,99773.02
2023-03-13T10:43:58.792Z,99763.64
2023-03-13T10:45:04.343Z,99765.69
2023-03-13T10:46:08.470Z,99766.77
2023-03-13T10:47:13.359Z,99761.06
2023-03-13T10:48:19.285Z,99755.50
2023-03-13T10:49:23.256Z,99752.02
2023-03-13T10:50:27.632Z,99746.09
2023-03-13T10:51:37.784Z,99746.88
2023-03-13T10:52:47.050Z,99739.70
2023-03-13T10:53:48.586Z,99740.80
2023-03-13T10:54:50.324Z,99739.13
2023-03-13T10:55:53.807Z,99737.61
2023-03-13T10:57:24.494Z,99731.58
2023-03-13T10:58:36.835Z,99727.45
2023-03-13T10:59:45.402Z,99720.70
2023-03-13T11:00:47.598Z,99723.44
2023-03-13T11:01:50.362Z,99714.42
2023-03-13T11:02:53.775Z,99708.80
2023-03-13T11:03:57.307Z,99705.23
2023-03-13T11:04:59.412Z,99705.04
2023-03-13T11:06:03.286Z,99703.33
2023-03-13T11:07:19.551Z,99698.23
2023-03-13T11:08:26.842Z,99700.13
2023-03-13T11:09:28.340Z,99699.06
2023-03-13T11:10:30.040Z,99691.01
2023-03-13T11:11:49.951Z,99690.88
2023-03-13T11:12:56.232Z,99689.54
2023-03-13T11:14:09.103Z,99690.14
2023-03-13T11:15:28.954Z,99685.40
2023-03-13T11:16:30.390Z,99683.83
2023-03-13T11:17:41.962Z,99681.85
2023-03-13T11:19:09.781Z,99673.18
2023-03-13T11:20:30.512Z,99679.31
2023-03-13T11:21:52.085Z,99670.23
2023-03-13T11:23:20.935Z,99672.04
2023-03-13T11:24:41.187Z,99663.50
2023-03-13T11:26:13.813Z,99658.83
2023-03-13T11:27:50.023Z,99657.77
2023-03-13T11:29:00.377Z,99653.02
2023-03-13T11:30:29.763Z,99646.23
2023-03-13T11:31:37.813Z,99638.40
2023-03-13T11:32:54.933Z,99637.67
2023-03-13T11:34:05.820Z,99633.00
2023-03-13T11:35:23.026Z,99628.34
2023-03-13T11:36:34.702Z,99625.39
2023-03-13T11:37:38.830Z,99620.02
2023-03-13T11:38:45.220Z,99616.80
2023-03-13T11:39:52.941Z,99613.61
2023-03-13T11:41:21.951Z,99605.42
2023-03-13T11:43:24.220Z,99609.14
2023-03-13T11:44:57.803Z,99606.49
2023-03-13T11:46:27.785Z,99604.61
2023-03-13T11:47:36.862Z,99604.77
2023-03-13T11:48:50.525Z,99600.14
2023-03-13T11:49:59.199Z,99594.23
2023-03-13T11:51:18.881Z,99590.27
2023-03-13T11:52:45.929Z,99581.73
2023-03-13T11:54:00.884Z,99594.40
2023-03-13T11:55:05.470Z,99582.92
2023-03-13T11:56:21.543Z,99578.13
2023-03-13T11:57:57.156Z,99576.77
2023-03-13T11:59:37.049Z,99572.27
2023-03-13T12:00:57.541Z,99557.65
2023-03-13T12:02:09.372Z,99556.41
2023-03-13T12:03:26.052Z,99558.01
2023-03-13T12:04:36.059Z,99551.88
2023-03-13T12:05:51.166Z,99558.26
2023-03-13T12:06:58.273Z,99549.10
2023-03-13T12:08:05.194Z,99557.10
2023-03-13T12:09:16.192Z,99554.78
2023-03-13T12:10:32.836Z,99548.13
2023-03-13T12:12:03.965Z,99546.73
2023-03-13T12:13:15.774Z,99538.29
2023-03-13T12:14:33.116Z,99536.69
2023-03-13T12:15:39.645Z,99538.05
2023-03-13T12:16:51.412Z,99536.61
2023-03-13T12:18:09.998Z,99523.71
2023-03-13T12:19:17.184Z,99517.06
2023-03-13T12:20:26.566Z,99514.06
2023-03-13T12:21:36.557Z,99510.02
2023-03-13T12:22:45.803Z,99503.05
2023-03-13T12:24:06.109Z,99493.05
2023-03-13T12:25:28.313Z,99484.94
2023-03-13T12:26:46.834Z,99487.34
2023-03-13T12:27:57.723Z,99483.46
2023-03-13T12:29:17.859Z,99484.94
2023-03-13T12:30:22.566Z,99481.03
2023-03-13T12:31:43.373Z,99478.45
2023-03-13T12:32:53.029Z,99471.81
2023-03-13T12:34:13.377Z,99473.07
2023-03-13T12:35:28.158Z,99466.85
2023-03-13T12:36:42.662Z,99467.17
2023-03-13T12:37:50.190Z,99461.10
2023-03-13T12:39:19.016Z,99457.61
2023-03-13T12:40:32.277Z,99459.98
2023-03-13T12:41:44.182Z,99454.80
2023-03-13T12:43:01.998Z,99450.32
2023-03-13T12:44:09.535Z,99453.30
2023-03-13T12:45:19.685Z,99452.48
2023-03-13T12:46:47.426Z,99451.98
2023-03-13T12:47:57.591Z,99448.21
2023-03-13T12:49:34.661Z,99448.81
2023-03-13T12:51:04.084Z,99452.23
2023-03-13T12:52:08.486Z,99437.30
2023-03-13T12:53:40.471Z,99432.27
2023-03-13T12:55:03.125Z,99430.46
2023-03-13T12:56:16.766Z,99428.66
2023-03-13T12:57:43.367Z,99424.52
2023-03-13T12:58:48.687Z,99414.52
2023-03-13T12:59:59.512Z,99420.73
2023-03-13T13:01:05.000Z,99413.45
2023-03-13T13:02:19.776Z,99413.26
2023-03-13T13:03:37.737Z,99409.41
2023-03-13T13:04:47.365Z,99415.45